sensor_id;sensor_type;location;lat;lon;timestamp;pressure;altitude;pressure_sealevel;temperature;humidity
39449;BME280;25151;45.566;9.382;2023-05-08T00:00:10;99827.41;;;22.39;63.15
39449;BME280;25151;45.566;9.382;2023-05-08T00:03:11;99826.16;;;22.40;63.09
39449;BME280;25151;45.566;9.382;2023-05-08T00:06:11;99823.81;;;22.39;63.12
39449;BME280;25151;45.566;9.382;2023-05-08T00:09:12;99824.59;;;22.39;62.92
39449;BME280;25151;45.566;9.382;2023-05-08T00:12:13;99821.78;;;22.39;63.41
39449;BME280;25151;45.566;9.382;2023-05-08T00:15:13;99818.19;;;22.39;63.10
39449;BME280;25151;45.566;9.382;2023-05-08T00:18:14;99817.41;;;22.38;63.26
39449;BME280;25151;45.566;9.382;2023-05-08T00:21:15;99816.16;;;22.39;63.05
39449;BME280;25151;45.566;9.382;2023-05-08T00:24:16;99812.56;;;22.39;63.15
39449;BME280;25151;45.566;9.382;2023-05-08T00:27:16;99811.78;;;22.38;63.46
39449;BME280;25151;45.566;9.382;2023-05-08T00:30:17;99804.59;;;22.37;63.26
39449;BME280;25151;45.566;9.382;2023-05-08T00:33:18;99803.03;;;22.36;63.52
39449;BME280;25151;45.566;9.382;2023-05-08T00:36:18;99803.03;;;22.36;63.35
39449;BME280;25151;45.566;9.382;2023-05-08T00:39:19;99808.66;;;22.36;63.42
39449;BME280;25151;45.566;9.382;2023-05-08T00:42:20;99802.25;;;22.36;63.20
39449;BME280;25151;45.566;9.382;2023-05-08T00:45:20;99803.03;;;22.36;63.15
39449;BME280;25151;45.566;9.382;2023-05-08T00:48:21;99808.66;;;22.36;63.03
39449;BME280;25151;45.566;9.382;2023-05-08T00:51:23;99812.22;;;22.37;63.23
39449;BME280;25151;45.566;9.382;2023-05-08T00:54:25;99806.31;;;22.34;63.05
39449;BME280;25151;45.566;9.382;2023-05-08T00:57:28;99812.72;;;22.35;63.33
39449;BME280;25151;45.566;9.382;2023-05-08T01:00:30;99819.09;;;22.36;63.07
39449;BME280;25151;45.566;9.382;2023-05-08T01:03:32;99818.31;;;22.35;63.41
39449;BME280;25151;45.566;9.382;2023-05-08T01:06:35;99818.31;;;22.35;63.09
39449;BME280;25151;45.566;9.382;2023-05-08T01:09:38;99819.56;;;22.34;63.59
39449;BME280;25151;45.566;9.382;2023-05-08T01:12:50;99827.22;;;22.33;63.42
39449;BME280;25151;45.566;9.382;2023-05-08T01:16:11;99820.81;;;22.33;63.23
39449;BME280;25151;45.566;9.382;2023-05-08T01:19:20;99827.22;;;22.33;63.03
39449;BME280;25151;45.566;9.382;2023-05-08T01:32:35;99835.31;;;22.31;63.38
39449;BME280;25151;45.566;9.382;2023-05-08T01:35:44;99846.09;;;22.33;63.51
39449;BME280;25151;45.566;9.382;2023-05-08T01:38:55;99853.72;;;22.32;63.44
39449;BME280;25151;45.566;9.382;2023-05-08T01:45:18;99862.63;;;22.31;63.24
39449;BME280;25151;45.566;9.382;2023-05-08T01:48:30;99869.81;;;22.32;63.36
39449;BME280;25151;45.566;9.382;2023-05-08T01:51:38;99878.72;;;22.30;63.18
39449;BME280;25151;45.566;9.382;2023-05-08T01:54:46;99899.16;;;22.31;63.43
39449;BME280;25151;45.566;9.382;2023-05-08T01:57:52;99896.00;;;22.29;63.52
39449;BME280;25151;45.566;9.382;2023-05-08T02:00:53;99913.19;;;22.31;63.24
39449;BME280;25151;45.566;9.382;2023-05-08T02:03:56;99917.25;;;22.30;63.47
39449;BME280;25151;45.566;9.382;2023-05-08T02:06:58;99930.03;;;22.31;63.32
39449;BME280;25151;45.566;9.382;2023-05-08T02:10:01;99924.09;;;22.29;63.42
39449;BME280;25151;45.566;9.382;2023-05-08T02:13:03;99930.03;;;22.31;63.54
39449;BME280;25151;45.566;9.382;2023-05-08T02:16:07;99930.03;;;22.31;63.58
39449;BME280;25151;45.566;9.382;2023-05-08T02:19:13;99916.47;;;22.29;63.55
39449;BME280;25151;45.566;9.382;2023-05-08T02:22:15;99910.03;;;22.29;63.44
39449;BME280;25151;45.566;9.382;2023-05-08T02:25:18;99901.31;;;22.27;63.65
39449;BME280;25151;45.566;9.382;2023-05-08T02:28:19;99900.53;;;22.26;63.40
39449;BME280;25151;45.566;9.382;2023-05-08T02:31:21;99896.47;;;22.27;63.51
39449;BME280;25151;45.566;9.382;2023-05-08T02:34:22;99889.59;;;22.28;63.30
39449;BME280;25151;45.566;9.382;2023-05-08T02:37:24;99891.63;;;22.28;63.41
39449;BME280;25151;45.566;9.382;2023-05-08T02:40:27;99888.81;;;22.28;63.46
39449;BME280;25151;45.566;9.382;2023-05-08T02:43:28;99884.47;;;22.27;63.27
39449;BME280;25151;45.566;9.382;2023-05-08T02:46:52;99886.00;;;22.28;63.30
39449;BME280;25151;45.566;9.382;2023-05-08T02:50:03;99890.06;;;22.27;63.19
39449;BME280;25151;45.566;9.382;2023-05-08T02:53:10;99895.69;;;22.27;63.33
39449;BME280;25151;45.566;9.382;2023-05-08T02:56:59;99914.09;;;22.28;63.27
39449;BME280;25151;45.566;9.382;2023-05-08T02:59:59;99909.25;;;22.28;63.48
39449;BME280;25151;45.566;9.382;2023-05-08T03:06:10;99905.38;;;22.26;63.28
39449;BME280;25151;45.566;9.382;2023-05-08T03:09:15;99916.91;;;22.28;63.42
39449;BME280;25151;45.566;9.382;2023-05-08T03:12:21;99920.63;;;22.25;63.24
39449;BME280;25151;45.566;9.382;2023-05-08T03:15:32;99910.22;;;22.25;63.70
39449;BME280;25151;45.566;9.382;2023-05-08T03:18:35;99911.00;;;22.26;63.34
39449;BME280;25151;45.566;9.382;2023-05-08T03:21:43;99906.59;;;22.25;63.53
39449;BME280;25151;45.566;9.382;2023-05-08T03:24:45;99898.97;;;22.25;63.65
39449;BME280;25151;45.566;9.382;2023-05-08T03:27:47;99902.22;;;22.24;63.03
39449;BME280;25151;45.566;9.382;2023-05-08T03:30:49;99905.03;;;22.24;63.41
39449;BME280;25151;45.566;9.382;2023-05-08T03:33:52;99898.16;;;22.25;63.41
39449;BME280;25151;45.566;9.382;2023-05-08T03:36:53;99897.38;;;22.24;63.43
39449;BME280;25151;45.566;9.382;2023-05-08T03:39:55;99901.44;;;22.23;63.32
39449;BME280;25151;45.566;9.382;2023-05-08T03:42:57;99899.41;;;22.24;63.47
39449;BME280;25151;45.566;9.382;2023-05-08T03:46:00;99903.13;;;22.21;63.59
39449;BME280;25151;45.566;9.382;2023-05-08T03:49:03;99904.72;;;22.22;63.47
39449;BME280;25151;45.566;9.382;2023-05-08T03:52:04;99909.09;;;22.23;63.24
39449;BME280;25151;45.566;9.382;2023-05-08T03:55:05;99902.22;;;22.24;63.54
39449;BME280;25151;45.566;9.382;2023-05-08T04:01:37;99907.06;;;22.23;63.61
39449;BME280;25151;45.566;9.382;2023-05-08T04:04:43;99909.09;;;22.23;63.27
39449;BME280;25151;45.566;9.382;2023-05-08T04:07:52;99911.91;;;22.23;63.42
39449;BME280;25151;45.566;9.382;2023-05-08T04:14:17;99911.13;;;22.22;63.29
39449;BME280;25151;45.566;9.382;2023-05-08T04:17:27;99911.91;;;22.23;63.21
39449;BME280;25151;45.566;9.382;2023-05-08T04:20:29;99917.50;;;22.23;63.43
39449;BME280;25151;45.566;9.382;2023-05-08T04:23:32;99917.97;;;22.21;63.46
39449;BME280;25151;45.566;9.382;2023-05-08T04:26:34;99923.13;;;22.23;63.47
39449;BME280;25151;45.566;9.382;2023-05-08T04:29:36;99932.69;;;22.25;63.35
39449;BME280;25151;45.566;9.382;2023-05-08T04:32:37;99929.41;;;22.27;63.14
39449;BME280;25151;45.566;9.382;2023-05-08T04:35:38;99930.19;;;22.27;63.27
39449;BME280;25151;45.566;9.382;2023-05-08T04:38:40;99929.41;;;22.27;63.42
39449;BME280;25151;45.566;9.382;2023-05-08T04:41:40;99937.34;;;22.28;63.48
39449;BME280;25151;45.566;9.382;2023-05-08T04:44:41;99945.78;;;22.28;63.34
39449;BME280;25151;45.566;9.382;2023-05-08T04:47:41;99936.91;;;22.30;63.32
39449;BME280;25151;45.566;9.382;2023-05-08T04:50:42;99936.44;;;22.31;63.55
39449;BME280;25151;45.566;9.382;2023-05-08T04:53:42;99939.72;;;22.30;63.51
39449;BME280;25151;45.566;9.382;2023-05-08T04:56:43;99947.69;;;22.31;63.54
39449;BME280;25151;45.566;9.382;2023-05-08T04:59:43;99947.69;;;22.31;63.44
39449;BME280;25151;45.566;9.382;2023-05-08T05:02:44;99953.31;;;22.31;63.31
39449;BME280;25151;45.566;9.382;2023-05-08T05:05:46;99952.84;;;22.33;63.57
39449;BME280;25151;45.566;9.382;2023-05-08T05:08:47;99949.25;;;22.32;63.26
39449;BME280;25151;45.566;9.382;2023-05-08T05:11:48;99950.03;;;22.33;63.16
39449;BME280;25151;45.566;9.382;2023-05-08T05:14:50;99961.25;;;22.33;63.44
39449;BME280;25151;45.566;9.382;2023-05-08T05:17:50;99952.84;;;22.33;63.57
39449;BME280;25151;45.566;9.382;2023-05-08T05:20:51;99951.63;;;22.34;63.45
39449;BME280;25151;45.566;9.382;2023-05-08T05:23:53;99951.63;;;22.34;63.32
39449;BME280;25151;45.566;9.382;2023-05-08T05:26:57;99951.63;;;22.34;63.52
39449;BME280;25151;45.566;9.382;2023-05-08T05:29:57;99963.16;;;22.36;63.21
39449;BME280;25151;45.566;9.382;2023-05-08T05:32:58;99958.78;;;22.35;63.41
39449;BME280;25151;45.566;9.382;2023-05-08T05:36:02;99954.72;;;22.36;63.07
39449;BME280;25151;45.566;9.382;2023-05-08T05:39:03;99961.91;;;22.37;63.17
39449;BME280;25151;45.566;9.382;2023-05-08T05:42:04;99960.34;;;22.36;63.46
39449;BME280;25151;45.566;9.382;2023-05-08T05:45:09;99959.09;;;22.37;63.46
39449;BME280;25151;45.566;9.382;2023-05-08T05:48:10;99974.75;;;22.38;63.38
39449;BME280;25151;45.566;9.382;2023-05-08T05:51:11;99970.69;;;22.39;63.57
39449;BME280;25151;45.566;9.382;2023-05-08T05:54:12;99965.06;;;22.39;63.41
39449;BME280;25151;45.566;9.382;2023-05-08T05:57:15;99975.50;;;22.39;63.52
39449;BME280;25151;45.566;9.382;2023-05-08T06:00:17;99975.97;;;22.37;63.34
39449;BME280;25151;45.566;9.382;2023-05-08T06:03:18;99964.72;;;22.37;63.40
39449;BME280;25151;45.566;9.382;2023-05-08T06:06:19;99973.97;;;22.38;63.32
39449;BME280;25151;45.566;9.382;2023-05-08T06:09:20;99973.50;;;22.39;63.52
39449;BME280;25151;45.566;9.382;2023-05-08T06:12:21;99978.75;;;22.37;63.29
39449;BME280;25151;45.566;9.382;2023-05-08T06:15:22;99981.13;;;22.39;63.31
39449;BME280;25151;45.566;9.382;2023-05-08T06:18:22;99980.34;;;22.38;63.37
39449;BME280;25151;45.566;9.382;2023-05-08T06:21:23;99973.16;;;22.37;63.60
39449;BME280;25151;45.566;9.382;2023-05-08T06:24:24;99970.69;;;22.39;63.33
39449;BME280;25151;45.566;9.382;2023-05-08T06:27:24;99978.63;;;22.41;63.27
39449;BME280;25151;45.566;9.382;2023-05-08T06:30:25;99981.78;;;22.43;63.08
39449;BME280;25151;45.566;9.382;2023-05-08T06:33:26;99980.22;;;22.42;63.51
39449;BME280;25151;45.566;9.382;2023-05-08T06:36:28;99983.03;;;22.42;63.11
39449;BME280;25151;45.566;9.382;2023-05-08T06:39:29;99983.03;;;22.42;63.06
39449;BME280;25151;45.566;9.382;2023-05-08T06:42:29;99986.63;;;22.42;63.40
39449;BME280;25151;45.566;9.382;2023-05-08T06:45:30;99985.84;;;22.42;63.02
39449;BME280;25151;45.566;9.382;2023-05-08T06:48:31;99987.41;;;22.43;63.22
39449;BME280;25151;45.566;9.382;2023-05-08T06:51:32;99983.34;;;22.44;63.35
39449;BME280;25151;45.566;9.382;2023-05-08T06:54:34;99992.25;;;22.42;63.17
39449;BME280;25151;45.566;9.382;2023-05-08T06:57:35;99976.94;;;22.43;63.26
39449;BME280;25151;45.566;9.382;2023-05-08T07:00:35;99982.56;;;22.43;63.09
39449;BME280;25151;45.566;9.382;2023-05-08T07:03:36;99984.13;;;22.44;63.21
39449;BME280;25151;45.566;9.382;2023-05-08T07:06:36;99985.72;;;22.45;63.39
39449;BME280;25151;45.566;9.382;2023-05-08T07:09:37;99992.56;;;22.44;62.98
39449;BME280;25151;45.566;9.382;2023-05-08T07:12:38;99989.31;;;22.46;63.22
39449;BME280;25151;45.566;9.382;2023-05-08T07:15:38;99988.53;;;22.45;63.37
39449;BME280;25151;45.566;9.382;2023-05-08T07:18:39;99992.91;;;22.46;63.14
39449;BME280;25151;45.566;9.382;2023-05-08T07:21:40;100004.13;;;22.46;63.13
39449;BME280;25151;45.566;9.382;2023-05-08T07:24:43;100002.56;;;22.45;63.07
39449;BME280;25151;45.566;9.382;2023-05-08T07:27:43;100008.03;;;22.49;63.34
39449;BME280;25151;45.566;9.382;2023-05-08T07:30:44;100007.25;;;22.48;63.35
39449;BME280;25151;45.566;9.382;2023-05-08T07:33:45;100005.69;;;22.47;63.19
39449;BME280;25151;45.566;9.382;2023-05-08T07:36:48;100012.88;;;22.48;63.16
39449;BME280;25151;45.566;9.382;2023-05-08T07:39:49;100008.03;;;22.49;63.06
39449;BME280;25151;45.566;9.382;2023-05-08T07:42:49;100008.84;;;22.49;63.20
39449;BME280;25151;45.566;9.382;2023-05-08T07:45:51;100013.22;;;22.50;63.04
39449;BME280;25151;45.566;9.382;2023-05-08T07:48:52;100010.41;;;22.50;63.04
39449;BME280;25151;45.566;9.382;2023-05-08T07:51:52;100016.03;;;22.50;63.28
39449;BME280;25151;45.566;9.382;2023-05-08T07:54:53;100009.94;;;22.52;63.29
39449;BME280;25151;45.566;9.382;2023-05-08T07:57:53;100011.97;;;22.51;63.41
39449;BME280;25151;45.566;9.382;2023-05-08T08:00:54;100023.22;;;22.51;63.19
39449;BME280;25151;45.566;9.382;2023-05-08T08:03:54;100023.22;;;22.51;63.29
39449;BME280;25151;45.566;9.382;2023-05-08T08:06:55;100022.44;;;22.51;63.18
39449;BME280;25151;45.566;9.382;2023-05-08T08:09:55;100026.00;;;22.51;63.08
39449;BME280;25151;45.566;9.382;2023-05-08T08:12:56;100023.22;;;22.51;63.28
39449;BME280;25151;45.566;9.382;2023-05-08T08:15:56;100021.19;;;22.52;63.19
39449;BME280;25151;45.566;9.382;2023-05-08T08:18:57;100016.34;;;22.52;63.28
39449;BME280;25151;45.566;9.382;2023-05-08T08:21:58;100024.75;;;22.52;63.03
39449;BME280;25151;45.566;9.382;2023-05-08T08:24:59;100025.53;;;22.53;63.37
39449;BME280;25151;45.566;9.382;2023-05-08T08:28:00;100026.34;;;22.53;62.94
39449;BME280;25151;45.566;9.382;2023-05-08T08:31:00;100027.56;;;22.52;63.02
39449;BME280;25151;45.566;9.382;2023-05-08T08:34:01;100026.34;;;22.53;63.18
39449;BME280;25151;45.566;9.382;2023-05-08T08:37:04;100024.75;;;22.52;63.17
39449;BME280;25151;45.566;9.382;2023-05-08T08:40:06;100031.16;;;22.53;62.91
39449;BME280;25151;45.566;9.382;2023-05-08T08:43:08;100027.13;;;22.54;62.84
39449;BME280;25151;45.566;9.382;2023-05-08T08:46:10;100038.38;;;22.54;62.78
39449;BME280;25151;45.566;9.382;2023-05-08T08:49:17;100027.91;;;22.54;62.82
39449;BME280;25151;45.566;9.382;2023-05-08T08:52:47;100044.00;;;22.54;62.95
39449;BME280;25151;45.566;9.382;2023-05-08T08:55:59;100039.16;;;22.54;62.84
39449;BME280;25151;45.566;9.382;2023-05-08T08:59:02;100023.84;;;22.55;62.80
39449;BME280;25151;45.566;9.382;2023-05-08T09:02:11;100027.91;;;22.54;62.67
39449;BME280;25151;45.566;9.382;2023-05-08T09:05:14;100030.72;;;22.54;63.03
39449;BME280;25151;45.566;9.382;2023-05-08T09:08:17;100030.25;;;22.56;62.95
39449;BME280;25151;45.566;9.382;2023-05-08T09:11:18;100032.28;;;22.55;63.03
39449;BME280;25151;45.566;9.382;2023-05-08T09:14:18;100030.25;;;22.56;62.96
39449;BME280;25151;45.566;9.382;2023-05-08T09:17:20;100031.03;;;22.56;62.95
39449;BME280;25151;45.566;9.382;2023-05-08T09:20:21;100025.41;;;22.56;62.85
39449;BME280;25151;45.566;9.382;2023-05-08T09:23:22;100031.03;;;22.56;62.75
39449;BME280;25151;45.566;9.382;2023-05-08T09:26:34;100033.41;;;22.58;63.09
39449;BME280;25151;45.566;9.382;2023-05-08T09:29:35;100031.84;;;22.57;62.97
39449;BME280;25151;45.566;9.382;2023-05-08T09:32:38;100032.63;;;22.57;62.79
39449;BME280;25151;45.566;9.382;2023-05-08T09:35:39;100034.19;;;22.58;63.02
39449;BME280;25151;45.566;9.382;2023-05-08T09:38:40;100031.38;;;22.58;63.02
39449;BME280;25151;45.566;9.382;2023-05-08T09:41:56;100037.00;;;22.58;62.80
39449;BME280;25151;45.566;9.382;2023-05-08T09:44:58;100047.78;;;22.60;63.06
39449;BME280;25151;45.566;9.382;2023-05-08T09:47:58;100040.59;;;22.59;62.80
39449;BME280;25151;45.566;9.382;2023-05-08T09:51:05;100048.56;;;22.61;62.66
39449;BME280;25151;45.566;9.382;2023-05-08T09:54:16;100059.78;;;22.61;62.66
39449;BME280;25151;45.566;9.382;2023-05-08T09:57:17;100053.41;;;22.60;62.58
39449;BME280;25151;45.566;9.382;2023-05-08T10:00:18;100054.16;;;22.61;62.78
39449;BME280;25151;45.566;9.382;2023-05-08T10:03:19;100044.97;;;22.60;62.71
39449;BME280;25151;45.566;9.382;2023-05-08T10:06:19;100053.41;;;22.60;62.73
39449;BME280;25151;45.566;9.382;2023-05-08T10:09:20;100054.16;;;22.61;62.67
39449;BME280;25151;45.566;9.382;2023-05-08T10:12:21;100046.09;;;22.63;62.69
39449;BME280;25151;45.566;9.382;2023-05-08T10:15:28;100046.09;;;22.63;62.83
39449;BME280;25151;45.566;9.382;2023-05-08T10:18:29;100046.88;;;22.63;62.91
39449;BME280;25151;45.566;9.382;2023-05-08T10:21:35;100041.25;;;22.63;63.14
39449;BME280;25151;45.566;9.382;2023-05-08T10:24:40;100040.47;;;22.63;63.25
39449;BME280;25151;45.566;9.382;2023-05-08T10:31:20;100042.03;;;22.64;63.17
39449;BME280;25151;45.566;9.382;2023-05-08T10:34:26;100047.66;;;22.64;63.18
39449;BME280;25151;45.566;9.382;2023-05-08T10:37:28;100044.06;;;22.63;63.25
39449;BME280;25151;45.566;9.382;2023-05-08T10:40:29;100047.66;;;22.64;63.20
39449;BME280;25151;45.566;9.382;2023-05-08T10:43:31;100042.81;;;22.64;63.39
39449;BME280;25151;45.566;9.382;2023-05-08T10:46:43;100040.00;;;22.64;63.44
39449;BME280;25151;45.566;9.382;2023-05-08T10:53:18;100032.03;;;22.63;63.53
39449;BME280;25151;45.566;9.382;2023-05-08T10:56:27;100027.97;;;22.64;63.41
39449;BME280;25151;45.566;9.382;2023-05-08T10:59:34;100024.38;;;22.63;63.42
39449;BME280;25151;45.566;9.382;2023-05-08T11:02:35;100018.28;;;22.65;63.27
39449;BME280;25151;45.566;9.382;2023-05-08T11:05:49;100019.88;;;22.66;63.49
39449;BME280;25151;45.566;9.382;2023-05-08T11:08:51;100019.41;;;22.67;63.21
39449;BME280;25151;45.566;9.382;2023-05-08T11:12:06;100013.78;;;22.67;63.46
39449;BME280;25151;45.566;9.382;2023-05-08T11:15:08;100021.75;;;22.69;63.11
39449;BME280;25151;45.566;9.382;2023-05-08T11:18:09;100021.75;;;22.69;63.56
39449;BME280;25151;45.566;9.382;2023-05-08T11:21:19;100017.72;;;22.70;63.17
39449;BME280;25151;45.566;9.382;2023-05-08T11:24:35;100013.66;;;22.71;63.10
39449;BME280;25151;45.566;9.382;2023-05-08T11:27:37;100012.88;;;22.70;63.58
39449;BME280;25151;45.566;9.382;2023-05-08T11:30:39;100011.31;;;22.69;63.22
39449;BME280;25151;45.566;9.382;2023-05-08T11:33:40;100012.41;;;22.72;63.60
39449;BME280;25151;45.566;9.382;2023-05-08T11:36:59;100011.19;;;22.73;63.63
39449;BME280;25151;45.566;9.382;2023-05-08T11:47:09;100008.69;;;22.75;63.32
39449;BME280;25151;45.566;9.382;2023-05-08T11:50:15;100004.63;;;22.76;63.62
39449;BME280;25151;45.566;9.382;2023-05-08T11:53:16;100013.06;;;22.76;63.51
39449;BME280;25151;45.566;9.382;2023-05-08T11:56:17;100018.66;;;22.76;63.47
39449;BME280;25151;45.566;9.382;2023-05-08T11:59:18;100011.81;;;22.77;63.45
39449;BME280;25151;45.566;9.382;2023-05-08T12:02:41;100018.22;;;22.77;63.47
39449;BME280;25151;45.566;9.382;2023-05-08T12:05:43;100003.41;;;22.77;63.58
39449;BME280;25151;45.566;9.382;2023-05-08T12:08:45;100010.22;;;22.76;63.24
39449;BME280;25151;45.566;9.382;2023-05-08T12:11:46;100011.50;;;22.75;63.24
39449;BME280;25151;45.566;9.382;2023-05-08T12:14:55;100011.50;;;22.75;63.38
39449;BME280;25151;45.566;9.382;2023-05-08T12:18:02;100012.75;;;22.74;63.09
39449;BME280;25151;45.566;9.382;2023-05-08T12:21:03;100012.25;;;22.75;62.98
39449;BME280;25151;45.566;9.382;2023-05-08T12:24:09;100007.91;;;22.74;63.14
39449;BME280;25151;45.566;9.382;2023-05-08T12:27:11;100007.13;;;22.74;62.96
39449;BME280;25151;45.566;9.382;2023-05-08T12:30:13;100006.34;;;22.73;63.30
39449;BME280;25151;45.566;9.382;2023-05-08T12:33:14;100006.34;;;22.73;63.30
39449;BME280;25151;45.566;9.382;2023-05-08T12:36:15;100003.53;;;22.73;63.11
39449;BME280;25151;45.566;9.382;2023-05-08T12:39:17;100004.31;;;22.74;63.18
39449;BME280;25151;45.566;9.382;2023-05-08T12:42:18;100003.53;;;22.73;62.86
39449;BME280;25151;45.566;9.382;2023-05-08T12:45:20;99999.94;;;22.73;63.05
39449;BME280;25151;45.566;9.382;2023-05-08T12:48:21;99995.09;;;22.73;63.13
39449;BME280;25151;45.566;9.382;2023-05-08T12:51:29;99995.09;;;22.73;62.76
39449;BME280;25151;45.566;9.382;2023-05-08T12:54:35;99983.06;;;22.73;62.75
39449;BME280;25151;45.566;9.382;2023-05-08T12:57:36;99984.63;;;22.74;63.04
39449;BME280;25151;45.566;9.382;2023-05-08T13:00:39;99972.59;;;22.73;62.87
39449;BME280;25151;45.566;9.382;2023-05-08T13:03:40;99983.84;;;22.73;62.74
39449;BME280;25151;45.566;9.382;2023-05-08T13:06:41;99978.22;;;22.73;62.58
39449;BME280;25151;45.566;9.382;2023-05-08T13:09:58;99971.81;;;22.73;62.58
39449;BME280;25151;45.566;9.382;2023-05-08T13:13:00;99968.22;;;22.72;62.94
39449;BME280;25151;45.566;9.382;2023-05-08T13:16:05;99965.41;;;22.72;62.62
39449;BME280;25151;45.566;9.382;2023-05-08T13:19:06;99958.22;;;22.71;62.90
39449;BME280;25151;45.566;9.382;2023-05-08T13:22:08;99965.41;;;22.72;62.79
39449;BME280;25151;45.566;9.382;2023-05-08T13:25:09;99954.16;;;22.72;62.81
39449;BME280;25151;45.566;9.382;2023-05-08T13:28:10;99949.34;;;22.73;62.53
39449;BME280;25151;45.566;9.382;2023-05-08T13:31:11;99945.72;;;22.72;62.84
39449;BME280;25151;45.566;9.382;2023-05-08T13:34:11;99943.72;;;22.73;62.90
39449;BME280;25151;45.566;9.382;2023-05-08T13:37:13;99946.97;;;22.71;62.85
39449;BME280;25151;45.566;9.382;2023-05-08T13:40:14;99948.53;;;22.72;62.66
39449;BME280;25151;45.566;9.382;2023-05-08T13:43:15;99936.50;;;22.72;62.42
39449;BME280;25151;45.566;9.382;2023-05-08T13:46:17;99937.28;;;22.72;62.91
39449;BME280;25151;45.566;9.382;2023-05-08T13:49:18;99935.72;;;22.71;62.64
39449;BME280;25151;45.566;9.382;2023-05-08T13:52:19;99930.88;;;22.72;62.36
39449;BME280;25151;45.566;9.382;2023-05-08T13:55:19;99930.88;;;22.72;62.69
39449;BME280;25151;45.566;9.382;2023-05-08T13:58:21;99936.50;;;22.72;62.50
39449;BME280;25151;45.566;9.382;2023-05-08T14:01:22;99935.72;;;22.71;62.83
39449;BME280;25151;45.566;9.382;2023-05-08T14:04:23;99930.88;;;22.72;62.60
39449;BME280;25151;45.566;9.382;2023-05-08T14:07:24;99939.31;;;22.72;62.25
39449;BME280;25151;45.566;9.382;2023-05-08T14:10:25;99934.94;;;22.71;62.77
39449;BME280;25151;45.566;9.382;2023-05-08T14:13:26;99936.50;;;22.72;62.73
39449;BME280;25151;45.566;9.382;2023-05-08T14:16:27;99914.03;;;22.72;62.73
39449;BME280;25151;45.566;9.382;2023-05-08T14:19:28;99914.03;;;22.72;62.67
39449;BME280;25151;45.566;9.382;2023-05-08T14:22:29;99912.47;;;22.71;62.41
39449;BME280;25151;45.566;9.382;2023-05-08T14:25:30;99912.47;;;22.71;62.47
39449;BME280;25151;45.566;9.382;2023-05-08T14:28:31;99921.66;;;22.71;62.38
39449;BME280;25151;45.566;9.382;2023-05-08T14:31:31;99911.69;;;22.70;62.49
39449;BME280;25151;45.566;9.382;2023-05-08T14:34:32;99912.47;;;22.71;62.41
39449;BME280;25151;45.566;9.382;2023-05-08T14:37:33;99910.91;;;22.70;62.40
39449;BME280;25151;45.566;9.382;2023-05-08T14:40:34;99909.66;;;22.71;62.79
39449;BME280;25151;45.566;9.382;2023-05-08T14:43:34;99905.28;;;22.70;62.88
39449;BME280;25151;45.566;9.382;2023-05-08T14:46:35;99905.28;;;22.70;62.49
39449;BME280;25151;45.566;9.382;2023-05-08T14:49:36;99899.66;;;22.70;62.75
39449;BME280;25151;45.566;9.382;2023-05-08T14:52:37;99896.84;;;22.70;62.68
39449;BME280;25151;45.566;9.382;2023-05-08T14:55:38;99907.31;;;22.69;62.70
39449;BME280;25151;45.566;9.382;2023-05-08T14:58:39;99898.06;;;22.69;62.42
39449;BME280;25151;45.566;9.382;2023-05-08T15:01:40;99888.41;;;22.70;62.51
39449;BME280;25151;45.566;9.382;2023-05-08T15:04:42;99899.66;;;22.70;62.70
39449;BME280;25151;45.566;9.382;2023-05-08T15:07:43;99901.69;;;22.69;62.61
39449;BME280;25151;45.566;9.382;2023-05-08T15:10:44;99894.03;;;22.70;62.59
39449;BME280;25151;45.566;9.382;2023-05-08T15:13:44;99895.25;;;22.69;62.49
39449;BME280;25151;45.566;9.382;2023-05-08T15:16:45;99898.88;;;22.69;62.66
39449;BME280;25151;45.566;9.382;2023-05-08T15:19:45;99901.34;;;22.67;62.59
39449;BME280;25151;45.566;9.382;2023-05-08T15:22:46;99898.06;;;22.69;62.85
39449;BME280;25151;45.566;9.382;2023-05-08T15:25:47;99902.13;;;22.68;62.46
39449;BME280;25151;45.566;9.382;2023-05-08T15:28:48;99903.69;;;22.69;62.60
39449;BME280;25151;45.566;9.382;2023-05-08T15:31:50;99908.53;;;22.68;62.64
39449;BME280;25151;45.566;9.382;2023-05-08T15:34:50;99907.75;;;22.68;62.61
39449;BME280;25151;45.566;9.382;2023-05-08T15:37:51;99908.53;;;22.68;62.69
39449;BME280;25151;45.566;9.382;2023-05-08T15:40:52;99910.56;;;22.68;62.63
39449;BME280;25151;45.566;9.382;2023-05-08T15:43:53;99902.59;;;22.66;62.82
39449;BME280;25151;45.566;9.382;2023-05-08T15:46:54;99915.88;;;22.66;62.83
39449;BME280;25151;45.566;9.382;2023-05-08T15:49:55;99928.69;;;22.67;62.68
39449;BME280;25151;45.566;9.382;2023-05-08T15:52:55;99924.63;;;22.68;62.68
39449;BME280;25151;45.566;9.382;2023-05-08T15:55:56;99922.16;;;22.70;62.70
39449;BME280;25151;45.566;9.382;2023-05-08T15:58:56;99922.16;;;22.70;62.65
39449;BME280;25151;45.566;9.382;2023-05-08T16:01:57;99918.09;;;22.71;62.83
39449;BME280;25151;45.566;9.382;2023-05-08T16:04:58;99921.38;;;22.69;62.79
39449;BME280;25151;45.566;9.382;2023-05-08T16:07:58;99925.41;;;22.68;62.69
39449;BME280;25151;45.566;9.382;2023-05-08T16:10:59;99925.41;;;22.68;62.71
39449;BME280;25151;45.566;9.382;2023-05-08T16:14:03;99930.72;;;22.66;62.78
39449;BME280;25151;45.566;9.382;2023-05-08T16:17:06;99938.66;;;22.68;62.58
39449;BME280;25151;45.566;9.382;2023-05-08T16:20:09;99923.06;;;22.67;62.55
39449;BME280;25151;45.566;9.382;2023-05-08T16:23:10;99937.13;;;22.67;62.72
39449;BME280;25151;45.566;9.382;2023-05-08T16:26:11;99929.16;;;22.65;62.51
39449;BME280;25151;45.566;9.382;2023-05-08T16:29:13;99927.13;;;22.66;62.55
39449;BME280;25151;45.566;9.382;2023-05-08T16:32:14;99921.50;;;22.66;62.86
39449;BME280;25151;45.566;9.382;2023-05-08T16:35:18;99920.25;;;22.67;62.66
39449;BME280;25151;45.566;9.382;2023-05-08T16:38:19;99927.13;;;22.66;62.83
39449;BME280;25151;45.566;9.382;2023-05-08T16:41:20;99920.72;;;22.65;62.85